createdAt,value
2023-02-07T00:01:20.768Z,1044.73
2023-02-07T00:03:48.110Z,1044.72
2023-02-07T00:06:16.731Z,1044.80
2023-02-07T00:08:45.408Z,1044.82
2023-02-07T00:11:14.229Z,1044.78
2023-02-07T00:13:40.991Z,1044.76
2023-02-07T00:16:08.122Z,1044.79
2023-02-07T00:18:35.593Z,1044.84
2023-02-07T00:21:04.540Z,1044.93
2023-02-07T00:23:31.355Z,1044.97
2023-02-07T00:26:00.164Z,1044.92
2023-02-07T00:28:27.186Z,1044.81
2023-02-07T00:31:03.566Z,1044.85
2023-02-07T00:33:30.565Z,1044.91
2023-02-07T00:35:58.260Z,1044.87
2023-02-07T00:38:25.267Z,1044.95
2023-02-07T00:40:52.084Z,1044.89
2023-02-07T00:43:29.363Z,1044.98
2023-02-07T00:45:57.740Z,1045.00
2023-02-07T00:48:24.515Z,1044.90
2023-02-07T00:50:51.340Z,1044.94
2023-02-07T00:53:18.108Z,1044.84
2023-02-07T00:55:45.144Z,1044.87
2023-02-07T00:58:11.977Z,1045.07
2023-02-07T01:00:40.145Z,1045.03
2023-02-07T01:03:06.925Z,1045.07
2023-02-07T01:05:33.671Z,1045.14
2023-02-07T01:08:00.411Z,1045.14
2023-02-07T01:10:27.195Z,1045.03
2023-02-07T01:12:53.976Z,1045.01
2023-02-07T01:15:20.809Z,1045.01
2023-02-07T01:17:49.105Z,1045.02
2023-02-07T01:20:16.340Z,1044.89
2023-02-07T01:22:43.245Z,1044.90
2023-02-07T01:25:10.396Z,1044.90
2023-02-07T01:27:37.886Z,1044.92
2023-02-07T01:30:05.852Z,1044.87
2023-02-07T01:32:32.938Z,1044.95
2023-02-07T01:35:01.561Z,1045.03
2023-02-07T01:37:28.464Z,1045.12
2023-02-07T01:39:55.250Z,1045.10
2023-02-07T01:42:24.743Z,1045.12
2023-02-07T01:45:13.076Z,1044.98
2023-02-07T01:47:39.891Z,1045.06
2023-02-07T01:50:09.466Z,1045.06
2023-02-07T01:52:39.928Z,1045.10
2023-02-07T01:55:09.849Z,1045.08
2023-02-07T01:57:36.924Z,1045.05
2023-02-07T02:00:04.768Z,1045.07
2023-02-07T02:02:34.993Z,1045.13
2023-02-07T02:05:03.442Z,1045.11
2023-02-07T02:07:32.396Z,1045.18
2023-02-07T02:09:59.550Z,1045.10
2023-02-07T02:12:38.322Z,1045.01
2023-02-07T02:15:26.737Z,1045.00
2023-02-07T02:18:10.484Z,1045.08
2023-02-07T02:21:04.341Z,1045.06
2023-02-07T02:23:44.025Z,1045.11
2023-02-07T02:26:43.434Z,1045.19
2023-02-07T02:29:59.193Z,1045.13
2023-02-07T02:32:59.733Z,1045.26
2023-02-07T02:35:35.099Z,1045.30
2023-02-07T02:38:11.220Z,1045.27
2023-02-07T02:40:45.881Z,1045.35
2023-02-07T02:43:19.847Z,1045.40
2023-02-07T02:45:51.625Z,1045.28
2023-02-07T02:48:19.592Z,1045.43
2023-02-07T02:50:49.273Z,1045.59
2023-02-07T02:53:16.932Z,1045.52
2023-02-07T02:56:10.574Z,1045.50
2023-02-07T02:58:51.487Z,1045.57
2023-02-07T03:01:28.854Z,1045.64
2023-02-07T03:04:10.244Z,1045.45
2023-02-07T03:06:56.580Z,1045.57
2023-02-07T03:09:35.569Z,1045.56
2023-02-07T03:12:13.877Z,1045.49
2023-02-07T03:14:51.774Z,1045.41
2023-02-07T03:17:24.098Z,1045.41
2023-02-07T03:19:56.440Z,1045.46
2023-02-07T03:22:27.440Z,1045.49
2023-02-07T03:24:57.718Z,1045.55
2023-02-07T03:27:27.908Z,1045.55
2023-02-07T03:29:58.139Z,1045.78
2023-02-07T03:32:28.988Z,1045.72
2023-02-07T03:34:58.991Z,1045.66
2023-02-07T03:37:34.803Z,1045.74
2023-02-07T03:40:02.364Z,1045.78
2023-02-07T03:42:33.376Z,1046.00
2023-02-07T03:45:02.427Z,1045.92
2023-02-07T03:47:29.265Z,1045.92
2023-02-07T03:49:56.180Z,1045.89
2023-02-07T03:52:22.940Z,1045.90
2023-02-07T03:54:51.258Z,1045.92
2023-02-07T03:57:18.056Z,1045.92
2023-02-07T03:59:44.799Z,1045.90
2023-02-07T04:02:11.732Z,1046.06
2023-02-07T04:04:38.977Z,1046.04
2023-02-07T04:07:05.973Z,1046.05
2023-02-07T04:09:33.567Z,1045.98
2023-02-07T04:12:01.673Z,1045.96
2023-02-07T04:14:28.752Z,1046.14
2023-02-07T04:16:55.545Z,1046.20
2023-02-07T04:19:22.401Z,1046.12
2023-02-07T04:21:49.237Z,1046.14
2023-02-07T04:24:16.042Z,1046.18
2023-02-07T04:26:42.806Z,1046.31
2023-02-07T04:29:10.897Z,1046.23
2023-02-07T04:31:37.987Z,1046.17
2023-02-07T04:34:05.046Z,1046.20
2023-02-07T04:36:32.031Z,1046.18
2023-02-07T04:38:58.958Z,1046.23
2023-02-07T04:41:25.679Z,1046.26
2023-02-07T04:43:52.707Z,1046.26
2023-02-07T04:46:20.925Z,1046.24
2023-02-07T04:48:47.750Z,1046.18
2023-02-07T04:51:14.928Z,1046.27
2023-02-07T04:53:42.046Z,1046.15
2023-02-07T04:56:08.893Z,1046.13
2023-02-07T04:58:35.640Z,1046.10
2023-02-07T05:01:02.418Z,1045.93
2023-02-07T05:03:30.666Z,1046.04
2023-02-07T05:05:57.496Z,1045.90
2023-02-07T05:08:26.192Z,1045.97
2023-02-07T05:10:53.970Z,1045.90
2023-02-07T05:13:21.256Z,1045.87
2023-02-07T05:15:48.189Z,1045.83
2023-02-07T05:18:14.953Z,1045.89
2023-02-07T05:20:43.201Z,1045.92
2023-02-07T05:23:10.295Z,1045.89
2023-02-07T05:25:37.459Z,1045.93
2023-02-07T05:28:04.829Z,1045.90
2023-02-07T05:30:31.799Z,1046.00
2023-02-07T05:32:58.808Z,1045.97
2023-02-07T05:35:25.541Z,1046.05
2023-02-07T05:37:53.709Z,1046.00
2023-02-07T05:40:20.477Z,1046.03
2023-02-07T05:42:47.237Z,1046.13
2023-02-07T05:45:14.214Z,1046.15
2023-02-07T05:47:40.969Z,1046.22
2023-02-07T05:50:08.224Z,1046.17
2023-02-07T05:52:35.877Z,1046.14
2023-02-07T05:55:04.282Z,1046.15
2023-02-07T05:57:31.065Z,1046.33
2023-02-07T05:59:58.122Z,1046.28
2023-02-07T06:02:24.917Z,1046.26
2023-02-07T06:04:51.889Z,1046.28
2023-02-07T06:07:18.733Z,1046.20
2023-02-07T06:09:45.568Z,1046.27
2023-02-07T06:12:13.838Z,1046.32
2023-02-07T06:14:40.599Z,1046.39
2023-02-07T06:17:09.966Z,1046.46
2023-02-07T06:19:36.745Z,1046.53
2023-02-07T06:22:03.760Z,1046.65
2023-02-07T06:24:30.728Z,1046.78
2023-02-07T06:26:57.467Z,1046.75
2023-02-07T06:29:25.639Z,1046.67
2023-02-07T06:31:52.447Z,1046.69
2023-02-07T06:34:19.278Z,1046.74
2023-02-07T06:36:46.144Z,1046.63
2023-02-07T06:39:12.893Z,1046.55
2023-02-07T06:41:39.966Z,1046.50
2023-02-07T06:44:06.910Z,1046.49
2023-02-07T06:46:35.076Z,1046.56
2023-02-07T06:49:01.921Z,1046.78
2023-02-07T06:51:28.672Z,1046.69
2023-02-07T06:53:55.656Z,1046.74
2023-02-07T06:56:22.429Z,1046.69
2023-02-07T06:58:49.165Z,1046.68
2023-02-07T07:01:16.941Z,1046.74
2023-02-07T07:03:45.103Z,1046.66
2023-02-07T07:06:12.700Z,1046.57
2023-02-07T07:08:40.102Z,1046.56
2023-02-07T07:11:06.968Z,1046.51
2023-02-07T07:13:33.876Z,1046.57
2023-02-07T07:16:00.902Z,1046.55
2023-02-07T07:18:27.708Z,1046.64
2023-02-07T07:20:57.077Z,1046.56
2023-02-07T07:23:24.307Z,1046.57
2023-02-07T07:25:52.044Z,1046.55
2023-02-07T07:28:19.121Z,1046.52
2023-02-07T07:30:46.172Z,1046.51
2023-02-07T07:33:13.160Z,1046.44
2023-02-07T07:35:41.041Z,1046.31
2023-02-07T07:38:10.020Z,1046.29
2023-02-07T07:40:37.015Z,1046.17
2023-02-07T07:43:04.008Z,1046.02
2023-02-07T07:45:30.708Z,1046.01
2023-02-07T07:47:57.807Z,1045.96
2023-02-07T07:50:24.629Z,1045.88
2023-02-07T07:52:51.367Z,1045.84
2023-02-07T07:55:19.600Z,1045.57
2023-02-07T07:57:46.762Z,1045.41
2023-02-07T08:00:14.648Z,1045.30
2023-02-07T08:02:41.665Z,1045.13
2023-02-07T08:05:09.102Z,1045.01
2023-02-07T08:07:36.163Z,1044.81
2023-02-07T08:10:03.298Z,1044.64
2023-02-07T08:12:31.750Z,1044.40
2023-02-07T08:14:58.787Z,1044.41
2023-02-07T08:17:25.823Z,1044.18
2023-02-07T08:19:52.853Z,1044.14
2023-02-07T08:22:19.798Z,1043.92
2023-02-07T08:24:46.637Z,1043.76
2023-02-07T08:27:13.617Z,1043.58
2023-02-07T08:29:42.058Z,1043.59
2023-02-07T08:32:09.115Z,1043.39
2023-02-07T08:34:36.164Z,1043.18
2023-02-07T08:37:04.775Z,1043.03
2023-02-07T08:39:31.613Z,1042.94
2023-02-07T08:41:58.471Z,1042.83
2023-02-07T08:44:25.681Z,1042.63
2023-02-07T08:46:53.826Z,1042.44
2023-02-07T08:49:20.634Z,1042.38
2023-02-07T08:51:47.478Z,1042.26
2023-02-07T08:54:14.566Z,1042.14
2023-02-07T08:56:41.503Z,1041.91
2023-02-07T08:59:08.277Z,1041.84
2023-02-07T09:01:35.039Z,1041.66
2023-02-07T09:04:03.272Z,1041.62
2023-02-07T09:06:30.116Z,1041.54
2023-02-07T09:08:57.238Z,1041.60
2023-02-07T09:11:24.118Z,1041.40
2023-02-07T09:13:51.349Z,1041.27
2023-02-07T09:16:18.114Z,1041.21
2023-02-07T09:18:45.014Z,1041.03
2023-02-07T09:21:13.244Z,1040.96
2023-02-07T09:23:40.149Z,1041.04
2023-02-07T09:26:08.150Z,1040.99
2023-02-07T09:28:35.560Z,1040.94
2023-02-07T09:31:08.593Z,1040.82
2023-02-07T09:33:36.355Z,1040.82
2023-02-07T09:36:03.962Z,1040.96
2023-02-07T09:38:32.150Z,1040.92
2023-02-07T09:40:59.348Z,1040.88
2023-02-07T09:43:38.018Z,1041.07
2023-02-07T09:46:12.268Z,1040.91
2023-02-07T09:48:46.550Z,1040.81
2023-02-07T09:51:15.825Z,1040.86
2023-02-07T09:53:49.944Z,1040.80
2023-02-07T09:56:18.379Z,1040.55
2023-02-07T09:58:52.206Z,1040.44
2023-02-07T10:01:21.739Z,1040.40
2023-02-07T10:04:00.706Z,1040.24
2023-02-07T10:06:28.724Z,1040.14
2023-02-07T10:09:00.172Z,1040.04
2023-02-07T10:11:41.453Z,1039.97
2023-02-07T10:14:25.100Z,1039.90
2023-02-07T10:17:06.169Z,1039.92
2023-02-07T10:19:42.163Z,1039.90
2023-02-07T10:22:21.729Z,1039.78
2023-02-07T10:25:21.618Z,1039.71
2023-02-07T10:27:57.414Z,1039.71
2023-02-07T10:30:28.188Z,1039.76
2023-02-07T10:33:01.967Z,1039.70
2023-02-07T10:35:33.953Z,1039.60
2023-02-07T10:38:01.845Z,1039.51
2023-02-07T10:40:37.598Z,1039.36
2023-02-07T10:43:18.113Z,1039.39
2023-02-07T10:45:48.054Z,1039.33
2023-02-07T10:48:17.186Z,1039.29
2023-02-07T10:50:44.342Z,1039.28
2023-02-07T10:53:11.358Z,1039.26
2023-02-07T10:55:42.211Z,1039.11
2023-02-07T10:58:22.945Z,1039.05
2023-02-07T11:00:52.211Z,1039.04
2023-02-07T11:03:20.899Z,1038.94
2023-02-07T11:05:56.818Z,1038.98
2023-02-07T11:08:26.431Z,1039.00
2023-02-07T11:10:56.401Z,1038.92
2023-02-07T11:13:24.629Z,1038.87
2023-02-07T11:15:55.449Z,1038.84
2023-02-07T11:18:45.515Z,1038.96
2023-02-07T11:21:27.385Z,1038.93
2023-02-07T11:23:57.413Z,1038.89
2023-02-07T11:26:26.062Z,1038.78
2023-02-07T11:28:54.424Z,1038.78
2023-02-07T11:31:28.695Z,1038.73
2023-02-07T11:34:08.620Z,1038.76
2023-02-07T11:36:35.367Z,1038.68
2023-02-07T11:39:02.147Z,1038.66
2023-02-07T11:41:32.052Z,1038.56
2023-02-07T11:44:01.455Z,1038.52
2023-02-07T11:46:35.323Z,1038.58
2023-02-07T11:49:03.063Z,1038.50
2023-02-07T11:51:31.385Z,1038.53
2023-02-07T11:54:01.574Z,1038.49
2023-02-07T11:56:33.896Z,1038.40
2023-02-07T11:59:05.363Z,1038.39
2023-02-07T12:01:34.425Z,1038.28
2023-02-07T12:04:07.446Z,1038.29
2023-02-07T12:06:41.408Z,1038.16
2023-02-07T12:09:21.798Z,1038.22
2023-02-07T12:11:54.617Z,1038.16
2023-02-07T12:14:27.654Z,1038.10
2023-02-07T12:16:58.070Z,1038.02
2023-02-07T12:19:31.258Z,1037.91
2023-02-07T12:22:06.978Z,1037.90
2023-02-07T12:24:39.218Z,1037.84
2023-02-07T12:27:14.721Z,1037.80
2023-02-07T12:29:54.270Z,1037.70
2023-02-07T12:32:30.423Z,1037.68
2023-02-07T12:35:05.503Z,1037.64
2023-02-07T12:37:42.087Z,1037.48
2023-02-07T12:40:19.376Z,1037.39
2023-02-07T12:42:54.685Z,1037.43
2023-02-07T12:45:34.685Z,1037.38
2023-02-07T12:48:12.587Z,1037.25
2023-02-07T12:51:03.242Z,1037.24
2023-02-07T12:53:43.933Z,1037.22
2023-02-07T12:56:24.015Z,1037.24
2023-02-07T12:59:06.877Z,1037.14
2023-02-07T13:01:40.836Z,1037.11
2023-02-07T13:04:41.518Z,1037.03
2023-02-07T13:07:26.446Z,1036.97
2023-02-07T13:10:03.278Z,1037.11
2023-02-07T13:12:36.724Z,1037.15
2023-02-07T13:15:17.757Z,1037.14
2023-02-07T13:17:54.503Z,1037.06
2023-02-07T13:20:47.810Z,1037.04
2023-02-07T13:23:18.996Z,1037.14
2023-02-07T13:25:49.295Z,1037.15
2023-02-07T13:28:22.783Z,1037.07
2023-02-07T13:30:51.401Z,1037.20
2023-02-07T13:33:32.909Z,1037.13
2023-02-07T13:36:06.608Z,1037.09
2023-02-07T13:38:46.926Z,1037.09
2023-02-07T13:41:23.306Z,1037.05
2023-02-07T13:44:09.287Z,1037.00
2023-02-07T13:47:07.456Z,1037.07
2023-02-07T13:49:46.461Z,1037.09
2023-02-07T13:52:23.095Z,1036.95
2023-02-07T13:54:59.450Z,1036.95
2023-02-07T13:57:40.148Z,1037.05
2023-02-07T14:00:16.448Z,1037.04
2023-02-07T14:02:47.496Z,1037.06
2023-02-07T14:05:23.073Z,1037.01
2023-02-07T14:07:58.061Z,1037.06
2023-02-07T14:10:47.117Z,1037.03
2023-02-07T14:13:35.926Z,1037.28
2023-02-07T14:16:06.960Z,1037.25
2023-02-07T14:18:42.502Z,1037.28
2023-02-07T14:21:41.586Z,1037.21
2023-02-07T14:24:30.242Z,1037.18
2023-02-07T14:27:05.058Z,1037.28
2023-02-07T14:30:11.031Z,1037.30
2023-02-07T14:32:55.022Z,1037.29
2023-02-07T14:35:36.682Z,1037.34
2023-02-07T14:38:21.968Z,1037.36
2023-02-07T14:41:08.534Z,1037.47
2023-02-07T14:43:44.579Z,1037.49
2023-02-07T14:46:15.184Z,1037.51
2023-02-07T14:48:53.339Z,1037.60
2023-02-07T14:51:23.514Z,1037.72
2023-02-07T14:54:08.429Z,1037.74
2023-02-07T14:56:46.633Z,1037.77
2023-02-07T14:59:18.578Z,1037.90
2023-02-07T15:01:45.369Z,1037.94
2023-02-07T15:04:12.663Z,1037.95
2023-02-07T15:06:42.042Z,1037.93
2023-02-07T15:09:18.700Z,1037.99
2023-02-07T15:11:49.456Z,1038.09
2023-02-07T15:14:28.017Z,1038.27
2023-02-07T15:16:55.379Z,1038.36
2023-02-07T15:19:26.766Z,1038.60
2023-02-07T15:21:53.584Z,1038.52
2023-02-07T15:24:27.316Z,1038.70
2023-02-07T15:26:57.475Z,1038.70
2023-02-07T15:29:26.980Z,1038.66
2023-02-07T15:31:54.188Z,1038.74
2023-02-07T15:34:22.823Z,1038.84
2023-02-07T15:36:51.235Z,1038.88
2023-02-07T15:39:19.705Z,1038.87
2023-02-07T15:41:49.171Z,1039.04
2023-02-07T15:44:21.212Z,1039.02
2023-02-07T15:46:50.435Z,1039.13
2023-02-07T15:49:32.470Z,1039.34
2023-02-07T15:52:15.793Z,1039.36
2023-02-07T15:54:46.541Z,1039.48
2023-02-07T15:57:23.302Z,1039.73
2023-02-07T15:59:52.185Z,1039.97
2023-02-07T16:02:25.639Z,1040.10
2023-02-07T16:04:52.514Z,1040.07
2023-02-07T16:07:19.694Z,1040.14
2023-02-07T16:09:47.617Z,1040.12
2023-02-07T16:12:34.021Z,1040.16
2023-02-07T16:15:02.189Z,1040.25
2023-02-07T16:17:40.308Z,1040.30
2023-02-07T16:20:08.184Z,1040.31
2023-02-07T16:22:34.956Z,1040.29
2023-02-07T16:25:02.554Z,1040.31
2023-02-07T16:27:31.854Z,1040.24
2023-02-07T16:29:59.700Z,1040.36
2023-02-07T16:32:31.076Z,1040.45
2023-02-07T16:35:00.073Z,1040.47
2023-02-07T16:37:27.584Z,1040.55
2023-02-07T16:39:54.392Z,1040.63
2023-02-07T16:42:21.269Z,1040.66
2023-02-07T16:44:49.356Z,1040.56
2023-02-07T16:47:18.138Z,1040.61
2023-02-07T16:49:46.220Z,1040.73
2023-02-07T16:52:13.365Z,1040.77
2023-02-07T16:54:40.134Z,1040.84
2023-02-07T16:57:07.167Z,1040.81
2023-02-07T16:59:34.045Z,1040.75
2023-02-07T17:02:02.245Z,1040.80
2023-02-07T17:04:29.017Z,1040.81
2023-02-07T17:06:55.762Z,1041.04
2023-02-07T17:09:24.258Z,1041.13
2023-02-07T17:11:51.463Z,1041.04
2023-02-07T17:14:18.276Z,1041.18
2023-02-07T17:16:45.038Z,1041.20
2023-02-07T17:19:15.546Z,1041.40
2023-02-07T17:21:42.336Z,1041.54
2023-02-07T17:24:09.970Z,1041.55
2023-02-07T17:26:37.802Z,1041.55
2023-02-07T17:29:05.356Z,1041.64
2023-02-07T17:31:35.101Z,1041.71
2023-02-07T17:34:01.915Z,1041.70
2023-02-07T17:36:30.040Z,1041.67
2023-02-07T17:38:56.869Z,1041.71
2023-02-07T17:41:23.738Z,1041.76
2023-02-07T17:43:50.432Z,1041.81
2023-02-07T17:46:19.426Z,1041.82
2023-02-07T17:48:47.290Z,1041.81
2023-02-07T17:51:14.176Z,1041.85
2023-02-07T17:53:42.524Z,1041.98
2023-02-07T17:56:16.714Z,1042.19
2023-02-07T17:58:43.510Z,1042.18
2023-02-07T18:01:10.379Z,1042.22
2023-02-07T18:03:37.215Z,1042.38
2023-02-07T18:06:04.174Z,1042.40
2023-02-07T18:08:30.910Z,1042.34
2023-02-07T18:10:59.052Z,1042.38
2023-02-07T18:13:25.878Z,1042.40
2023-02-07T18:15:52.700Z,1042.47
2023-02-07T18:18:19.472Z,1042.58
2023-02-07T18:20:46.212Z,1042.51
2023-02-07T18:23:12.921Z,1042.52
2023-02-07T18:25:39.688Z,1042.55
2023-02-07T18:28:07.874Z,1042.50
2023-02-07T18:30:34.701Z,1042.59
2023-02-07T18:33:01.446Z,1042.47
2023-02-07T18:35:28.189Z,1042.55
2023-02-07T18:37:54.969Z,1042.56
2023-02-07T18:40:21.841Z,1042.57
2023-02-07T18:42:48.565Z,1042.56
2023-02-07T18:45:17.002Z,1042.57
2023-02-07T18:47:44.071Z,1042.71
2023-02-07T18:50:12.360Z,1042.83
2023-02-07T18:52:39.520Z,1042.74
2023-02-07T18:55:07.069Z,1042.78
2023-02-07T18:57:33.977Z,1042.87
2023-02-07T19:00:00.903Z,1042.89
2023-02-07T19:02:29.173Z,1043.04
2023-02-07T19:04:56.028Z,1043.04
2023-02-07T19:07:23.061Z,1043.01
2023-02-07T19:09:49.847Z,1042.90
2023-02-07T19:12:16.726Z,1042.91
2023-02-07T19:14:43.532Z,1042.90
2023-02-07T19:17:10.366Z,1042.94
2023-02-07T19:19:38.606Z,1042.94
2023-02-07T19:22:05.441Z,1043.01
2023-02-07T19:24:32.154Z,1043.03
2023-02-07T19:26:59.092Z,1043.05
2023-02-07T19:29:28.212Z,1043.05
2023-02-07T19:31:55.637Z,1042.92
2023-02-07T19:34:22.437Z,1042.89
2023-02-07T19:36:50.550Z,1042.99
2023-02-07T19:39:17.274Z,1043.15
2023-02-07T19:41:44.396Z,1043.14
2023-02-07T19:44:11.179Z,1043.14
2023-02-07T19:46:38.037Z,1043.20
2023-02-07T19:49:04.812Z,1043.24
2023-02-07T19:51:32.133Z,1043.24
2023-02-07T19:54:00.798Z,1043.13
2023-02-07T19:56:30.188Z,1043.12
2023-02-07T19:58:56.938Z,1043.15
2023-02-07T20:01:24.677Z,1043.24
2023-02-07T20:03:52.673Z,1043.23
2023-02-07T20:06:21.322Z,1043.26
2023-02-07T20:08:48.844Z,1043.40
2023-02-07T20:11:19.642Z,1043.43
2023-02-07T20:13:49.274Z,1043.53
2023-02-07T20:16:17.960Z,1043.54
2023-02-07T20:18:44.881Z,1043.50
2023-02-07T20:21:13.776Z,1043.52
2023-02-07T20:23:40.704Z,1043.56
2023-02-07T20:26:09.184Z,1043.64
2023-02-07T20:28:37.486Z,1043.65
2023-02-07T20:31:06.219Z,1043.70
2023-02-07T20:33:34.918Z,1043.69
2023-02-07T20:36:01.933Z,1043.67
2023-02-07T20:38:28.753Z,1043.76
2023-02-07T20:40:55.508Z,1043.81
2023-02-07T20:43:22.346Z,1043.92
2023-02-07T20:45:50.432Z,1043.85
2023-02-07T20:48:17.203Z,1043.88
2023-02-07T20:50:43.948Z,1043.89
2023-02-07T20:53:10.665Z,1043.99
2023-02-07T20:55:37.428Z,1044.06
2023-02-07T20:58:04.208Z,1043.98
2023-02-07T21:00:31.275Z,1044.00
2023-02-07T21:02:59.484Z,1044.05
2023-02-07T21:05:26.375Z,1044.18
2023-02-07T21:07:53.111Z,1044.22
2023-02-07T21:10:19.998Z,1044.10
2023-02-07T21:12:46.789Z,1044.10
2023-02-07T21:15:13.637Z,1044.07
2023-02-07T21:17:40.405Z,1044.10
2023-02-07T21:20:09.404Z,1044.21
2023-02-07T21:22:36.172Z,1044.21
2023-02-07T21:25:02.983Z,1044.29
2023-02-07T21:27:29.839Z,1044.28
2023-02-07T21:29:56.617Z,1044.30
2023-02-07T21:32:23.385Z,1044.38
2023-02-07T21:34:50.109Z,1044.36
2023-02-07T21:37:20.246Z,1044.40
2023-02-07T21:39:48.752Z,1044.45
2023-02-07T21:42:15.559Z,1044.49
2023-02-07T21:44:42.383Z,1044.46
2023-02-07T21:47:09.170Z,1044.50
2023-02-07T21:49:36.096Z,1044.55
2023-02-07T21:52:02.940Z,1044.62
2023-02-07T21:54:31.151Z,1044.66
2023-02-07T21:56:57.905Z,1044.65
2023-02-07T21:59:24.673Z,1044.58
2023-02-07T22:01:51.553Z,1044.63
2023-02-07T22:04:18.810Z,1044.66
2023-02-07T22:06:45.972Z,1044.67
2023-02-07T22:09:15.129Z,1044.68
2023-02-07T22:11:44.353Z,1044.67
2023-02-07T22:14:11.744Z,1044.72
2023-02-07T22:16:38.963Z,1044.69
2023-02-07T22:19:07.038Z,1044.75
2023-02-07T22:21:35.832Z,1044.86
2023-02-07T22:24:05.030Z,1044.89
2023-02-07T22:26:32.983Z,1044.79
2023-02-07T22:29:01.960Z,1044.78
2023-02-07T22:31:30.772Z,1044.82
2023-02-07T22:33:59.951Z,1044.89
2023-02-07T22:36:28.917Z,1044.91
2023-02-07T22:38:56.000Z,1045.03
2023-02-07T22:41:22.899Z,1045.08
2023-02-07T22:43:50.542Z,1045.07
2023-02-07T22:46:23.247Z,1045.07
2023-02-07T22:48:53.147Z,1044.97
2023-02-07T22:51:22.034Z,1044.98
2023-02-07T22:53:49.999Z,1045.00
2023-02-07T22:56:16.971Z,1045.07
2023-02-07T22:58:43.841Z,1045.02
2023-02-07T23:01:20.962Z,1045.08
2023-02-07T23:03:48.220Z,1045.13
2023-02-07T23:06:15.477Z,1045.16
2023-02-07T23:08:42.471Z,1045.20
2023-02-07T23:11:10.667Z,1045.11
2023-02-07T23:13:37.429Z,1045.17
2023-02-07T23:16:04.906Z,1045.20
2023-02-07T23:18:33.131Z,1045.19
2023-02-07T23:20:59.861Z,1045.21
2023-02-07T23:23:26.784Z,1045.29
2023-02-07T23:25:53.532Z,1045.28
2023-02-07T23:28:20.373Z,1045.25
2023-02-07T23:30:47.295Z,1045.30
2023-02-07T23:33:14.247Z,1045.31
2023-02-07T23:35:42.368Z,1045.36
2023-02-07T23:38:09.111Z,1045.51
2023-02-07T23:40:35.904Z,1045.50
2023-02-07T23:43:02.747Z,1045.51
2023-02-07T23:45:29.476Z,1045.46
2023-02-07T23:47:56.181Z,1045.41
2023-02-07T23:50:22.884Z,1045.57
2023-02-07T23:52:51.049Z,1045.60
2023-02-07T23:55:18.011Z,1045.62
2023-02-07T23:57:44.801Z,1045.56
